createdAt,value
2023-03-29T00:00:28.336Z,5.79
2023-03-29T00:01:35.839Z,5.68
2023-03-29T00:02:29.858Z,5.61
2023-03-29T00:03:28.420Z,5.47
2023-03-29T00:04:28.282Z,5.32
2023-03-29T00:05:28.286Z,5.20
2023-03-29T00:06:28.221Z,5.10
2023-03-29T00:07:29.186Z,5.05
2023-03-29T00:08:28.215Z,5.00
2023-03-29T00:09:28.177Z,4.96
2023-03-29T00:10:28.183Z,4.97
2023-03-29T00:11:28.210Z,4.99
2023-03-29T00:12:29.105Z,5.04
2023-03-29T00:13:28.145Z,5.10
2023-03-29T00:14:28.134Z,5.14
2023-03-29T00:15:28.094Z,5.15
2023-03-29T00:16:28.170Z,5.18
2023-03-29T00:17:28.098Z,5.20
2023-03-29T00:18:29.014Z,5.23
2023-03-29T00:19:28.072Z,5.28
2023-03-29T00:20:28.043Z,5.32
2023-03-29T00:21:28.031Z,5.36
2023-03-29T00:22:28.067Z,5.39
2023-03-29T00:23:28.005Z,5.41
2023-03-29T00:24:28.929Z,5.41
2023-03-29T00:25:27.984Z,5.38
2023-03-29T00:26:27.969Z,5.36
2023-03-29T00:27:28.029Z,5.32
2023-03-29T00:28:27.965Z,5.30
2023-03-29T00:29:28.924Z,5.26
2023-03-29T00:30:27.928Z,5.25
2023-03-29T00:31:27.970Z,5.20
2023-03-29T00:32:27.929Z,5.18
2023-03-29T00:33:27.956Z,5.15
2023-03-29T00:34:27.884Z,5.14
2023-03-29T00:35:28.856Z,5.12
2023-03-29T00:36:27.853Z,5.14
2023-03-29T00:37:27.871Z,5.14
2023-03-29T00:38:27.826Z,5.17
2023-03-29T00:39:27.899Z,5.23
2023-03-29T00:40:27.883Z,5.28
2023-03-29T00:41:28.720Z,5.30
2023-03-29T00:42:27.819Z,5.30
2023-03-29T00:43:27.765Z,5.28
2023-03-29T00:44:27.802Z,5.28
2023-03-29T00:45:27.750Z,5.25
2023-03-29T00:46:28.720Z,5.26
2023-03-29T00:47:27.760Z,5.26
2023-03-29T00:48:27.709Z,5.28
2023-03-29T00:49:27.692Z,5.30
2023-03-29T00:50:27.694Z,5.29
2023-03-29T00:51:27.668Z,5.29
2023-03-29T00:52:28.586Z,5.26
2023-03-29T00:53:27.643Z,5.20
2023-03-29T00:54:27.634Z,5.17
2023-03-29T00:55:27.644Z,5.17
2023-03-29T00:56:27.599Z,5.17
2023-03-29T00:57:27.791Z,5.17
2023-03-29T00:58:28.508Z,5.18
2023-03-29T00:59:27.623Z,5.23
2023-03-29T01:00:27.564Z,5.30
2023-03-29T01:01:27.628Z,5.35
2023-03-29T01:02:27.586Z,5.39
2023-03-29T01:03:27.708Z,5.46
2023-03-29T01:04:28.447Z,5.50
2023-03-29T01:05:27.472Z,5.53
2023-03-29T01:06:27.516Z,5.57
2023-03-29T01:07:27.501Z,5.59
2023-03-29T01:08:27.460Z,5.61
2023-03-29T01:09:27.445Z,5.59
2023-03-29T01:10:28.376Z,5.62
2023-03-29T01:11:27.428Z,5.65
2023-03-29T01:12:27.432Z,5.68
2023-03-29T01:13:27.452Z,5.71
2023-03-29T01:14:27.366Z,5.76
2023-03-29T01:15:28.347Z,5.80
2023-03-29T01:16:27.413Z,5.84
2023-03-29T01:17:27.376Z,5.84
2023-03-29T01:18:27.361Z,5.87
2023-03-29T01:19:27.318Z,5.90
2023-03-29T01:20:27.301Z,5.93
2023-03-29T01:21:28.217Z,5.94
2023-03-29T01:22:27.263Z,5.97
2023-03-29T01:23:27.319Z,5.94
2023-03-29T01:24:27.254Z,5.89
2023-03-29T01:25:27.233Z,5.87
2023-03-29T01:26:28.166Z,5.84
2023-03-29T01:27:27.213Z,5.84
2023-03-29T01:28:27.214Z,5.83
2023-03-29T01:29:27.232Z,5.84
2023-03-29T01:30:27.170Z,5.84
2023-03-29T01:31:28.804Z,5.82
2023-03-29T01:32:27.171Z,5.83
2023-03-29T01:33:27.141Z,5.76
2023-03-29T01:34:27.175Z,5.75
2023-03-29T01:35:27.080Z,5.73
2023-03-29T01:36:27.105Z,5.71
2023-03-29T01:37:28.080Z,5.71
2023-03-29T01:38:28.976Z,5.65
2023-03-29T01:39:27.093Z,5.64
2023-03-29T01:40:27.030Z,5.56
2023-03-29T01:41:27.023Z,5.51
2023-03-29T01:42:27.034Z,5.46
2023-03-29T01:43:27.960Z,5.38
2023-03-29T01:44:26.981Z,5.36
2023-03-29T01:45:26.974Z,5.32
2023-03-29T01:46:27.031Z,5.35
2023-03-29T01:47:26.960Z,5.41
2023-03-29T01:48:27.870Z,5.46
2023-03-29T01:49:26.928Z,5.50
2023-03-29T01:50:26.948Z,5.54
2023-03-29T01:51:26.889Z,5.54
2023-03-29T01:52:26.899Z,5.56
2023-03-29T01:53:26.870Z,5.53
2023-03-29T01:54:27.824Z,5.54
2023-03-29T01:55:26.842Z,5.56
2023-03-29T01:56:26.891Z,5.57
2023-03-29T01:57:26.880Z,5.59
2023-03-29T01:58:26.904Z,5.59
2023-03-29T01:59:27.734Z,5.56
2023-03-29T02:00:26.832Z,5.54
2023-03-29T02:01:26.866Z,5.54
2023-03-29T02:02:26.771Z,5.54
2023-03-29T02:03:26.929Z,5.57
2023-03-29T02:04:27.670Z,5.57
2023-03-29T02:05:26.728Z,5.61
2023-03-29T02:06:26.737Z,5.65
2023-03-29T02:07:26.716Z,5.68
2023-03-29T02:08:26.677Z,5.73
2023-03-29T02:09:26.668Z,5.75
2023-03-29T02:10:27.617Z,5.76
2023-03-29T02:11:26.656Z,5.80
2023-03-29T02:12:26.631Z,5.82
2023-03-29T02:13:26.636Z,5.79
2023-03-29T02:14:26.607Z,5.76
2023-03-29T02:15:27.568Z,5.72
2023-03-29T02:16:26.591Z,5.69
2023-03-29T02:17:26.600Z,5.68
2023-03-29T02:18:26.579Z,5.64
2023-03-29T02:19:26.555Z,5.59
2023-03-29T02:20:27.502Z,5.53
2023-03-29T02:21:26.651Z,5.43
2023-03-29T02:22:26.497Z,5.35
2023-03-29T02:23:26.519Z,5.30
2023-03-29T02:24:26.537Z,5.28
2023-03-29T02:25:26.484Z,5.20
2023-03-29T02:26:27.400Z,5.12
2023-03-29T02:27:26.423Z,5.10
2023-03-29T02:28:26.454Z,5.05
2023-03-29T02:29:26.464Z,5.05
2023-03-29T02:30:26.432Z,4.99
2023-03-29T02:31:27.488Z,4.93
2023-03-29T02:32:26.408Z,4.89
2023-03-29T02:33:26.357Z,4.90
2023-03-29T02:34:26.384Z,4.89
2023-03-29T02:35:26.355Z,4.89
2023-03-29T02:36:27.293Z,4.84
2023-03-29T02:37:26.316Z,4.78
2023-03-29T02:38:26.297Z,4.75
2023-03-29T02:39:26.300Z,4.75
2023-03-29T02:40:26.290Z,4.75
2023-03-29T02:41:26.321Z,4.75
2023-03-29T02:42:27.177Z,4.77
2023-03-29T02:43:26.261Z,4.82
2023-03-29T02:44:26.285Z,4.86
2023-03-29T02:45:26.262Z,4.80
2023-03-29T02:46:26.272Z,4.75
2023-03-29T02:47:27.146Z,4.70
2023-03-29T02:48:26.194Z,4.67
2023-03-29T02:49:26.176Z,4.62
2023-03-29T02:50:26.168Z,4.59
2023-03-29T02:51:26.170Z,4.53
2023-03-29T02:52:27.075Z,4.49
2023-03-29T02:53:26.171Z,4.41
2023-03-29T02:54:26.154Z,4.35
2023-03-29T02:55:26.148Z,4.28
2023-03-29T02:56:26.111Z,4.24
2023-03-29T02:57:27.190Z,4.22
2023-03-29T02:58:26.067Z,4.22
2023-03-29T02:59:26.057Z,4.26
2023-03-29T03:00:26.028Z,4.30
2023-03-29T03:01:26.131Z,4.31
2023-03-29T03:02:26.079Z,4.34
2023-03-29T03:03:26.990Z,4.38
2023-03-29T03:04:26.037Z,4.41
2023-03-29T03:05:25.976Z,4.41
2023-03-29T03:06:25.993Z,4.40
2023-03-29T03:07:25.988Z,4.40
2023-03-29T03:08:26.875Z,4.40
2023-03-29T03:09:25.925Z,4.37
2023-03-29T03:10:25.943Z,4.35
2023-03-29T03:11:25.911Z,4.34
2023-03-29T03:12:25.926Z,4.34
2023-03-29T03:13:26.817Z,4.34
2023-03-29T03:14:25.856Z,4.32
2023-03-29T03:15:25.859Z,4.31
2023-03-29T03:16:25.863Z,4.32
2023-03-29T03:17:25.878Z,4.34
2023-03-29T03:18:26.750Z,4.37
2023-03-29T03:19:25.848Z,4.35
2023-03-29T03:20:25.789Z,4.37
2023-03-29T03:21:25.764Z,4.38
2023-03-29T03:22:25.800Z,4.40
2023-03-29T03:23:25.747Z,4.44
2023-03-29T03:24:26.691Z,4.40
2023-03-29T03:25:25.725Z,4.34
2023-03-29T03:26:25.724Z,4.31
2023-03-29T03:27:25.697Z,4.30
2023-03-29T03:28:25.701Z,4.31
2023-03-29T03:29:26.617Z,4.32
2023-03-29T03:30:25.695Z,4.34
2023-03-29T03:31:25.712Z,4.35
2023-03-29T03:32:25.682Z,4.35
2023-03-29T03:33:25.605Z,4.38
2023-03-29T03:34:25.621Z,4.40
2023-03-29T03:35:26.534Z,4.42
2023-03-29T03:36:25.575Z,4.45
2023-03-29T03:37:25.593Z,4.50
2023-03-29T03:38:25.655Z,4.55
2023-03-29T03:39:25.568Z,4.58
2023-03-29T03:40:26.598Z,4.60
2023-03-29T03:41:26.552Z,4.63
2023-03-29T03:42:25.529Z,4.63
2023-03-29T03:43:25.543Z,4.63
2023-03-29T03:44:25.481Z,4.63
2023-03-29T03:45:25.469Z,4.66
2023-03-29T03:46:26.691Z,4.67
2023-03-29T03:47:26.415Z,4.68
2023-03-29T03:48:25.438Z,4.71
2023-03-29T03:49:25.417Z,4.70
2023-03-29T03:50:25.406Z,4.67
2023-03-29T03:51:25.417Z,4.62
2023-03-29T03:52:25.361Z,4.58
2023-03-29T03:53:26.341Z,4.56
2023-03-29T03:54:25.405Z,4.55
2023-03-29T03:55:25.337Z,4.52
2023-03-29T03:56:25.352Z,4.48
2023-03-29T03:57:25.391Z,4.44
2023-03-29T03:58:26.267Z,4.41
2023-03-29T03:59:25.316Z,4.40
2023-03-29T04:00:25.284Z,4.40
2023-03-29T04:01:25.279Z,4.41
2023-03-29T04:02:25.350Z,4.42
2023-03-29T04:03:25.272Z,4.38
2023-03-29T04:04:26.198Z,4.32
2023-03-29T04:05:25.214Z,4.30
2023-03-29T04:06:25.222Z,4.26
2023-03-29T04:07:25.246Z,4.24
2023-03-29T04:08:25.197Z,4.26
2023-03-29T04:09:25.151Z,4.28
2023-03-29T04:10:26.114Z,4.26
2023-03-29T04:11:25.187Z,4.26
2023-03-29T04:12:25.159Z,4.23
2023-03-29T04:13:25.128Z,4.24
2023-03-29T04:14:25.113Z,4.26
2023-03-29T04:15:25.098Z,4.23
2023-03-29T04:16:26.133Z,4.22
2023-03-29T04:17:25.100Z,4.23
2023-03-29T04:18:25.159Z,4.24
2023-03-29T04:19:25.017Z,4.23
2023-03-29T04:20:25.040Z,4.19
2023-03-29T04:21:25.017Z,4.17
2023-03-29T04:22:25.997Z,4.20
2023-03-29T04:23:25.052Z,4.17
2023-03-29T04:24:25.003Z,4.14
2023-03-29T04:25:24.977Z,4.06
2023-03-29T04:26:24.929Z,4.01
2023-03-29T04:27:24.946Z,3.98
2023-03-29T04:28:25.920Z,3.96
2023-03-29T04:29:24.903Z,3.94
2023-03-29T04:30:24.998Z,3.95
2023-03-29T04:31:24.972Z,3.96
2023-03-29T04:32:24.928Z,3.99
2023-03-29T04:33:24.887Z,4.02
2023-03-29T04:34:25.824Z,4.05
2023-03-29T04:35:24.826Z,4.12
2023-03-29T04:36:24.854Z,4.14
2023-03-29T04:37:24.824Z,4.19
2023-03-29T04:38:24.820Z,4.24
2023-03-29T04:39:24.805Z,4.31
2023-03-29T04:40:25.708Z,4.35
2023-03-29T04:41:24.754Z,4.38
2023-03-29T04:42:24.742Z,4.37
2023-03-29T04:43:24.775Z,4.40
2023-03-29T04:44:24.744Z,4.42
2023-03-29T04:45:24.739Z,4.44
2023-03-29T04:46:25.696Z,4.48
2023-03-29T04:47:24.741Z,4.44
2023-03-29T04:48:24.686Z,4.34
2023-03-29T04:49:26.095Z,4.20
2023-03-29T04:50:24.644Z,4.06
2023-03-29T04:51:24.645Z,4.01
2023-03-29T04:52:25.577Z,3.96
2023-03-29T04:53:24.605Z,3.87
2023-03-29T04:54:24.595Z,3.81
2023-03-29T04:55:24.620Z,3.81
2023-03-29T04:56:24.586Z,3.81
2023-03-29T04:57:24.749Z,3.83
2023-03-29T04:58:29.557Z,3.84
2023-03-29T04:59:26.053Z,3.88
2023-03-29T05:00:24.547Z,3.92
2023-03-29T05:01:24.536Z,4.01
2023-03-29T05:02:24.659Z,4.05
2023-03-29T05:03:24.515Z,4.10
2023-03-29T05:04:25.432Z,4.16
2023-03-29T05:05:24.450Z,4.20
2023-03-29T05:06:24.462Z,4.24
2023-03-29T05:07:24.493Z,4.30
2023-03-29T05:08:24.418Z,4.35
2023-03-29T05:09:25.372Z,4.37
2023-03-29T05:10:24.450Z,4.37
2023-03-29T05:11:24.425Z,4.34
2023-03-29T05:12:24.377Z,4.22
2023-03-29T05:13:24.387Z,4.13
2023-03-29T05:14:25.263Z,4.10
2023-03-29T05:15:24.324Z,4.13
2023-03-29T05:16:24.430Z,4.14
2023-03-29T05:17:24.317Z,4.20
2023-03-29T05:18:24.315Z,4.24
2023-03-29T05:19:25.287Z,4.34
2023-03-29T05:20:24.304Z,4.41
2023-03-29T05:21:24.249Z,4.48
2023-03-29T05:22:24.243Z,4.53
2023-03-29T05:23:24.251Z,4.56
2023-03-29T05:24:25.159Z,4.63
2023-03-29T05:25:24.189Z,4.71
2023-03-29T05:26:24.195Z,4.77
2023-03-29T05:27:24.178Z,4.82
2023-03-29T05:28:24.203Z,4.89
2023-03-29T05:29:25.082Z,4.97
2023-03-29T05:30:24.143Z,5.02
2023-03-29T05:31:24.175Z,5.05
2023-03-29T05:32:24.195Z,5.05
2023-03-29T05:33:24.132Z,5.08
2023-03-29T05:34:24.086Z,5.08
2023-03-29T05:35:25.017Z,5.11
2023-03-29T05:36:24.052Z,5.14
2023-03-29T05:37:24.059Z,5.11
2023-03-29T05:38:24.059Z,5.12
2023-03-29T05:39:24.030Z,5.14
2023-03-29T05:40:24.003Z,5.15
2023-03-29T05:41:24.934Z,5.20
2023-03-29T05:42:24.016Z,5.21
2023-03-29T05:43:23.995Z,5.23
2023-03-29T05:44:23.969Z,5.21
2023-03-29T05:45:24.028Z,5.21
2023-03-29T05:46:24.870Z,5.23
2023-03-29T05:47:23.960Z,5.23
2023-03-29T05:48:23.944Z,5.15
2023-03-29T05:49:23.919Z,5.12
2023-03-29T05:50:23.869Z,5.11
2023-03-29T05:51:24.812Z,5.14
2023-03-29T05:52:23.870Z,5.14
2023-03-29T05:53:23.894Z,5.14
2023-03-29T05:54:23.825Z,5.15
2023-03-29T05:55:23.826Z,5.18
2023-03-29T05:56:24.853Z,5.14
2023-03-29T05:57:24.116Z,5.10
2023-03-29T05:58:23.904Z,5.04
2023-03-29T05:59:23.785Z,4.96
2023-03-29T06:00:24.062Z,4.94
2023-03-29T06:01:23.744Z,4.92
2023-03-29T06:02:24.820Z,4.86
2023-03-29T06:03:23.859Z,4.78
2023-03-29T06:04:23.841Z,4.77
2023-03-29T06:05:23.728Z,4.77
2023-03-29T06:06:23.713Z,4.75
2023-03-29T06:07:24.632Z,4.66
2023-03-29T06:08:23.754Z,4.49
2023-03-29T06:09:23.654Z,4.41
2023-03-29T06:10:23.620Z,4.38
2023-03-29T06:11:23.749Z,4.41
2023-03-29T06:12:23.610Z,4.48
2023-03-29T06:13:24.558Z,4.53
2023-03-29T06:14:23.571Z,4.62
2023-03-29T06:15:23.563Z,4.73
2023-03-29T06:16:23.591Z,4.82
2023-03-29T06:17:23.579Z,4.93
2023-03-29T06:18:24.490Z,5.05
2023-03-29T06:19:23.541Z,5.17
2023-03-29T06:20:23.501Z,5.28
2023-03-29T06:21:23.489Z,5.36
2023-03-29T06:22:23.472Z,5.44
2023-03-29T06:23:24.416Z,5.41
2023-03-29T06:24:23.471Z,5.44
2023-03-29T06:25:23.459Z,5.48
2023-03-29T06:26:23.461Z,5.51
2023-03-29T06:27:23.482Z,5.50
2023-03-29T06:28:24.333Z,5.51
2023-03-29T06:29:23.422Z,5.50
2023-03-29T06:30:23.396Z,5.51
2023-03-29T06:31:23.438Z,5.54
2023-03-29T06:32:23.424Z,5.56
2023-03-29T06:33:24.279Z,5.61
2023-03-29T06:34:23.337Z,5.62
2023-03-29T06:35:23.299Z,5.68
2023-03-29T06:36:23.317Z,5.73
2023-03-29T06:37:23.347Z,5.73
2023-03-29T06:38:23.509Z,5.73
2023-03-29T06:39:24.202Z,5.72
2023-03-29T06:40:23.253Z,5.73
2023-03-29T06:41:23.250Z,5.79
2023-03-29T06:42:23.252Z,5.79
2023-03-29T06:43:23.217Z,5.76
2023-03-29T06:44:24.111Z,5.82
2023-03-29T06:45:24.695Z,5.84
2023-03-29T06:46:23.193Z,5.84
2023-03-29T06:47:23.164Z,5.84
2023-03-29T06:48:23.157Z,5.87
2023-03-29T06:49:24.068Z,5.87
2023-03-29T06:50:23.119Z,5.91
2023-03-29T06:51:23.470Z,5.94
2023-03-29T06:52:23.085Z,6.01
2023-03-29T06:53:23.099Z,6.05
2023-03-29T06:54:23.990Z,6.12
2023-03-29T06:55:23.041Z,6.16
2023-03-29T06:56:23.091Z,6.19
2023-03-29T06:57:23.098Z,6.22
2023-03-29T06:58:23.065Z,6.22
2023-03-29T06:59:23.948Z,6.20
2023-03-29T07:00:23.012Z,6.12
2023-03-29T07:01:23.021Z,6.08
2023-03-29T07:02:22.964Z,6.07
2023-03-29T07:03:22.951Z,6.02
2023-03-29T07:04:23.860Z,6.05
2023-03-29T07:05:22.932Z,6.05
2023-03-29T07:06:22.947Z,6.08
2023-03-29T07:07:22.911Z,6.11
2023-03-29T07:08:22.912Z,6.16
2023-03-29T07:09:22.892Z,6.20
2023-03-29T07:10:23.779Z,6.26
2023-03-29T07:11:22.877Z,6.26
2023-03-29T07:12:22.848Z,6.22
2023-03-29T07:13:22.830Z,6.08
2023-03-29T07:14:22.796Z,5.91
2023-03-29T07:15:23.724Z,5.91
2023-03-29T07:16:22.893Z,5.91
2023-03-29T07:17:22.857Z,5.97
2023-03-29T07:18:22.894Z,6.05
2023-03-29T07:19:22.803Z,6.14
2023-03-29T07:20:22.785Z,6.27
2023-03-29T07:21:23.651Z,6.39
2023-03-29T07:22:22.705Z,6.49
2023-03-29T07:23:22.728Z,6.62
2023-03-29T07:24:22.689Z,6.69
2023-03-29T07:25:22.657Z,6.66
2023-03-29T07:26:28.616Z,6.66
2023-03-29T07:27:25.085Z,6.56
2023-03-29T07:28:22.672Z,6.48
2023-03-29T07:29:22.633Z,6.42
2023-03-29T07:30:22.583Z,6.30
2023-03-29T07:31:22.589Z,6.30
2023-03-29T07:32:22.648Z,6.33
2023-03-29T07:33:23.545Z,6.28
2023-03-29T07:34:22.571Z,6.19
2023-03-29T07:35:22.543Z,6.17
2023-03-29T07:36:22.601Z,6.22
2023-03-29T07:37:22.536Z,6.22
2023-03-29T07:38:22.494Z,6.27
2023-03-29T07:39:23.453Z,6.35
2023-03-29T07:40:22.499Z,6.44
2023-03-29T07:41:22.683Z,6.45
2023-03-29T07:42:22.458Z,6.38
2023-03-29T07:43:22.417Z,6.30
2023-03-29T07:44:23.383Z,6.28
2023-03-29T07:45:26.691Z,6.33
2023-03-29T07:46:23.993Z,6.26
2023-03-29T07:47:22.366Z,6.20
2023-03-29T07:48:22.358Z,6.24
2023-03-29T07:49:22.366Z,6.24
2023-03-29T07:50:23.513Z,6.24
2023-03-29T07:51:22.337Z,6.27
2023-03-29T07:52:22.322Z,6.31
2023-03-29T07:53:22.347Z,6.36
2023-03-29T07:54:22.432Z,6.38
2023-03-29T07:55:23.262Z,6.44
2023-03-29T07:56:22.324Z,6.52
2023-03-29T07:57:22.367Z,6.66
2023-03-29T07:58:22.261Z,6.79
2023-03-29T07:59:22.215Z,6.89
2023-03-29T08:00:23.281Z,7.02
2023-03-29T08:01:22.260Z,7.10
2023-03-29T08:02:22.307Z,7.03
2023-03-29T08:03:22.292Z,6.95
2023-03-29T08:04:22.263Z,6.85
2023-03-29T08:05:37.931Z,6.79
2023-03-29T08:06:24.566Z,6.75
2023-03-29T08:07:22.139Z,6.74
2023-03-29T08:08:22.233Z,6.70
2023-03-29T08:09:22.110Z,6.67
2023-03-29T08:10:22.173Z,6.66
2023-03-29T08:11:23.008Z,6.70
2023-03-29T08:12:24.482Z,6.72
2023-03-29T08:13:22.047Z,6.74
2023-03-29T08:14:22.110Z,6.75
2023-03-29T08:15:22.017Z,6.78
2023-03-29T08:16:22.976Z,6.81
2023-03-29T08:17:21.977Z,6.88
2023-03-29T08:18:22.008Z,6.93
2023-03-29T08:19:22.016Z,6.96
2023-03-29T08:20:21.997Z,6.95
2023-03-29T08:21:23.004Z,6.99
2023-03-29T08:22:21.977Z,7.00
2023-03-29T08:23:21.943Z,6.97
2023-03-29T08:24:21.923Z,6.97
2023-03-29T08:25:21.935Z,6.99
2023-03-29T08:26:21.910Z,7.00
2023-03-29T08:27:22.821Z,7.07
2023-03-29T08:28:21.848Z,7.11
2023-03-29T08:29:21.870Z,7.07
2023-03-29T08:30:21.876Z,7.10
2023-03-29T08:31:21.819Z,7.13
2023-03-29T08:32:22.748Z,7.14
2023-03-29T08:33:21.855Z,7.17
2023-03-29T08:34:21.789Z,7.23
2023-03-29T08:35:21.780Z,7.31
2023-03-29T08:36:21.736Z,7.40
2023-03-29T08:37:22.728Z,7.50
2023-03-29T08:38:21.734Z,7.58
2023-03-29T08:39:22.685Z,7.66
2023-03-29T08:40:21.692Z,7.75
2023-03-29T08:41:21.699Z,7.82
2023-03-29T08:42:21.703Z,7.95
2023-03-29T08:43:22.624Z,8.08
2023-03-29T08:44:21.650Z,8.08
2023-03-29T08:45:21.662Z,8.05
2023-03-29T08:46:21.678Z,8.01
2023-03-29T08:47:21.689Z,7.97
2023-03-29T08:48:21.598Z,8.03
2023-03-29T08:49:22.577Z,8.03
2023-03-29T08:50:21.561Z,8.13
2023-03-29T08:51:21.571Z,8.27
2023-03-29T08:52:21.607Z,8.45
2023-03-29T08:53:21.530Z,8.66
2023-03-29T08:54:21.529Z,8.81
2023-03-29T08:55:22.454Z,9.02
2023-03-29T08:56:21.517Z,9.08
2023-03-29T08:57:21.546Z,9.04
2023-03-29T08:58:21.461Z,8.94
2023-03-29T08:59:21.478Z,8.82
2023-03-29T09:00:21.432Z,8.85
2023-03-29T09:01:22.412Z,8.84
2023-03-29T09:02:21.691Z,8.88
2023-03-29T09:03:21.519Z,9.04
2023-03-29T09:04:21.386Z,9.22
2023-03-29T09:05:21.397Z,9.40
2023-03-29T09:06:21.404Z,9.61
2023-03-29T09:07:24.627Z,9.64
2023-03-29T09:08:21.391Z,9.69
2023-03-29T09:09:21.333Z,9.66
2023-03-29T09:10:21.321Z,9.72
2023-03-29T09:11:21.412Z,9.68
2023-03-29T09:12:22.217Z,9.61
2023-03-29T09:13:21.288Z,9.59
2023-03-29T09:14:21.251Z,9.51
2023-03-29T09:15:21.240Z,9.41
2023-03-29T09:16:21.605Z,9.32
2023-03-29T09:17:22.221Z,9.23
2023-03-29T09:18:21.262Z,9.23
2023-03-29T09:19:21.308Z,9.25
2023-03-29T09:20:21.200Z,9.23
2023-03-29T09:21:21.182Z,9.18
2023-03-29T09:22:21.140Z,9.22
2023-03-29T09:23:22.114Z,9.32
2023-03-29T09:24:21.173Z,9.41
2023-03-29T09:25:21.123Z,9.39
2023-03-29T09:26:21.118Z,9.40
2023-03-29T09:27:21.081Z,9.47
2023-03-29T09:28:21.088Z,9.56
2023-03-29T09:29:21.994Z,9.56
2023-03-29T09:30:21.054Z,9.69
2023-03-29T09:31:21.062Z,9.84
2023-03-29T09:32:21.012Z,9.99
2023-03-29T09:33:21.040Z,10.17
2023-03-29T09:34:21.203Z,10.31
2023-03-29T09:35:21.924Z,10.53
2023-03-29T09:36:20.983Z,10.56
2023-03-29T09:37:20.961Z,10.38
2023-03-29T09:38:20.994Z,10.20
2023-03-29T09:39:20.912Z,10.13
2023-03-29T09:40:20.956Z,10.13
2023-03-29T09:41:21.836Z,10.13
2023-03-29T09:42:20.912Z,10.19
2023-03-29T09:43:20.959Z,10.28
2023-03-29T09:44:30.339Z,10.42
2023-03-29T09:45:22.364Z,10.68
2023-03-29T09:46:20.875Z,10.84
2023-03-29T09:47:21.747Z,10.92
2023-03-29T09:48:20.884Z,11.08
2023-03-29T09:49:22.504Z,11.25
2023-03-29T09:50:30.977Z,11.44
2023-03-29T09:51:22.286Z,11.47
2023-03-29T09:52:21.720Z,11.55
2023-03-29T09:53:20.792Z,11.73
2023-03-29T09:54:20.743Z,11.90
2023-03-29T09:55:20.747Z,12.10
2023-03-29T09:56:20.741Z,12.13
2023-03-29T09:57:21.773Z,12.06
2023-03-29T09:58:20.792Z,12.09
2023-03-29T09:59:20.707Z,12.28
2023-03-29T10:00:20.649Z,12.46
2023-03-29T10:01:20.661Z,12.60
2023-03-29T10:02:21.711Z,12.78
2023-03-29T10:03:20.719Z,12.91
2023-03-29T10:04:20.649Z,12.90
2023-03-29T10:05:20.622Z,12.65
2023-03-29T10:06:20.678Z,12.27
2023-03-29T10:07:21.541Z,11.94
2023-03-29T10:08:20.566Z,11.65
2023-03-29T10:09:20.542Z,11.54
2023-03-29T10:10:20.520Z,11.30
2023-03-29T10:11:20.623Z,11.25
2023-03-29T10:12:20.568Z,11.41
2023-03-29T10:13:21.426Z,11.57
2023-03-29T10:14:20.506Z,11.73
2023-03-29T10:15:29.406Z,11.88
2023-03-29T10:16:22.017Z,11.83
2023-03-29T10:17:20.468Z,12.03
2023-03-29T10:18:21.382Z,11.88
2023-03-29T10:19:20.422Z,11.83
2023-03-29T10:20:21.339Z,11.77
2023-03-29T10:21:20.449Z,11.70
2023-03-29T10:22:20.399Z,11.51
2023-03-29T10:23:20.359Z,11.37
2023-03-29T10:24:21.309Z,11.33
2023-03-29T10:25:20.329Z,11.44
2023-03-29T10:26:20.356Z,11.78
2023-03-29T10:27:20.347Z,11.99
2023-03-29T10:28:20.338Z,12.17
2023-03-29T10:29:21.330Z,12.43
2023-03-29T10:30:20.296Z,12.62
2023-03-29T10:31:20.282Z,12.64
2023-03-29T10:32:20.275Z,12.70
2023-03-29T10:33:20.277Z,12.90
2023-03-29T10:34:20.232Z,13.00
2023-03-29T10:35:21.128Z,12.98
2023-03-29T10:36:20.244Z,12.61
2023-03-29T10:37:20.206Z,12.42
2023-03-29T10:38:21.142Z,12.27
2023-03-29T10:39:20.190Z,12.15
2023-03-29T10:40:20.130Z,12.07
2023-03-29T10:41:21.094Z,12.12
2023-03-29T10:42:20.137Z,12.27
2023-03-29T10:43:20.118Z,12.39
2023-03-29T10:44:20.149Z,12.35
2023-03-29T10:45:20.078Z,12.25
2023-03-29T10:46:20.085Z,12.04
2023-03-29T10:47:21.036Z,12.07
2023-03-29T10:48:20.066Z,12.10
2023-03-29T10:49:20.070Z,12.09
2023-03-29T10:50:20.026Z,11.94
2023-03-29T10:51:20.032Z,11.75
2023-03-29T10:52:19.983Z,11.63
2023-03-29T10:53:20.915Z,11.52
2023-03-29T10:54:20.024Z,11.45
2023-03-29T10:55:19.969Z,11.44
2023-03-29T10:56:19.966Z,11.37
2023-03-29T10:57:22.722Z,11.27
2023-03-29T10:58:19.895Z,11.23
2023-03-29T10:59:20.845Z,11.19
2023-03-29T11:00:19.902Z,11.17
2023-03-29T11:01:19.912Z,11.18
2023-03-29T11:02:19.925Z,11.11
2023-03-29T11:03:21.573Z,11.07
2023-03-29T11:04:19.854Z,11.08
2023-03-29T11:05:20.765Z,11.26
2023-03-29T11:06:19.788Z,11.37
2023-03-29T11:07:19.795Z,11.44
2023-03-29T11:08:19.788Z,11.44
2023-03-29T11:09:19.793Z,11.44
2023-03-29T11:10:19.757Z,11.44
2023-03-29T11:11:20.663Z,11.47
2023-03-29T11:12:20.001Z,11.62
2023-03-29T11:13:19.731Z,11.83
2023-03-29T11:14:19.699Z,12.12
2023-03-29T11:15:19.829Z,12.31
2023-03-29T11:16:19.811Z,12.43
2023-03-29T11:17:20.750Z,12.49
2023-03-29T11:18:19.665Z,12.39
2023-03-29T11:19:19.636Z,12.21
2023-03-29T11:20:19.643Z,12.06
2023-03-29T11:21:19.600Z,11.99
2023-03-29T11:22:20.539Z,11.83
2023-03-29T11:23:19.595Z,11.80
2023-03-29T11:24:19.583Z,11.90
2023-03-29T11:25:19.614Z,12.12
2023-03-29T11:26:19.562Z,12.32
2023-03-29T11:27:19.536Z,12.42
2023-03-29T11:28:20.448Z,12.82
2023-03-29T11:29:19.717Z,13.15
2023-03-29T11:30:19.493Z,13.42
2023-03-29T11:31:19.524Z,13.63
2023-03-29T11:32:19.470Z,14.08
2023-03-29T11:33:20.387Z,14.48
2023-03-29T11:34:19.470Z,15.17
2023-03-29T11:35:19.433Z,15.47
2023-03-29T11:36:19.444Z,15.70
2023-03-29T11:37:19.449Z,15.90
2023-03-29T11:38:20.338Z,15.79
2023-03-29T11:39:19.363Z,15.52
2023-03-29T11:40:19.346Z,15.14
2023-03-29T11:41:19.369Z,14.79
2023-03-29T11:42:19.347Z,14.33
2023-03-29T11:43:20.282Z,13.81
2023-03-29T11:44:19.305Z,13.56
2023-03-29T11:45:19.287Z,13.42
2023-03-29T11:46:19.342Z,13.41
2023-03-29T11:47:19.253Z,13.52
2023-03-29T11:48:19.260Z,13.81
2023-03-29T11:49:20.300Z,14.00
2023-03-29T11:50:19.217Z,14.07
2023-03-29T11:51:19.281Z,13.95
2023-03-29T11:52:19.206Z,13.74
2023-03-29T11:53:19.211Z,13.52
2023-03-29T11:54:19.205Z,13.44
2023-03-29T11:55:20.090Z,13.42
2023-03-29T11:56:19.143Z,13.67
2023-03-29T11:57:19.220Z,13.93
2023-03-29T11:58:19.135Z,14.25
2023-03-29T11:59:19.158Z,14.33
2023-03-29T12:00:19.093Z,14.59
2023-03-29T12:01:20.025Z,14.70
2023-03-29T12:02:19.140Z,14.88
2023-03-29T12:03:19.141Z,14.81
2023-03-29T12:04:19.066Z,14.66
2023-03-29T12:05:19.012Z,14.55
2023-03-29T12:06:19.950Z,14.51
2023-03-29T12:07:19.027Z,14.36
2023-03-29T12:08:19.024Z,14.14
2023-03-29T12:09:19.025Z,13.75
2023-03-29T12:10:18.954Z,13.53
2023-03-29T12:11:19.896Z,13.18
2023-03-29T12:12:18.941Z,13.00
2023-03-29T12:13:18.935Z,13.00
2023-03-29T12:14:18.928Z,12.95
2023-03-29T12:15:18.897Z,12.95
2023-03-29T12:16:19.892Z,12.83
2023-03-29T12:17:18.859Z,12.78
2023-03-29T12:18:18.880Z,12.65
2023-03-29T12:19:18.886Z,12.65
2023-03-29T12:20:18.843Z,12.57
2023-03-29T12:21:18.814Z,12.40
2023-03-29T12:22:19.768Z,12.20
2023-03-29T12:23:18.812Z,12.15
2023-03-29T12:24:18.819Z,12.21
2023-03-29T12:25:20.216Z,12.22
2023-03-29T12:26:18.743Z,12.25
2023-03-29T12:27:18.748Z,12.18
2023-03-29T12:28:19.690Z,12.10
2023-03-29T12:29:18.740Z,12.00
2023-03-29T12:30:18.689Z,11.88
2023-03-29T12:31:18.754Z,11.81
2023-03-29T12:32:18.714Z,11.81
2023-03-29T12:33:18.739Z,11.83
2023-03-29T12:34:19.585Z,11.84
2023-03-29T12:35:18.685Z,11.68
2023-03-29T12:36:18.716Z,11.57
2023-03-29T12:37:18.662Z,11.50
2023-03-29T12:38:18.779Z,11.40
2023-03-29T12:39:18.578Z,11.37
2023-03-29T12:40:19.518Z,11.37
2023-03-29T12:41:18.580Z,11.43
2023-03-29T12:42:18.565Z,11.48
2023-03-29T12:43:18.551Z,11.57
2023-03-29T12:44:18.528Z,11.65
2023-03-29T12:45:19.601Z,11.66
2023-03-29T12:46:18.601Z,11.68
2023-03-29T12:47:18.494Z,11.72
2023-03-29T12:48:18.473Z,11.73
2023-03-29T12:49:19.885Z,11.70
2023-03-29T12:50:19.372Z,11.65
2023-03-29T12:51:18.420Z,11.66
2023-03-29T12:52:18.406Z,11.69
2023-03-29T12:53:18.431Z,11.66
2023-03-29T12:54:18.407Z,11.63
2023-03-29T12:55:18.381Z,11.60
2023-03-29T12:56:19.314Z,11.65
2023-03-29T12:57:18.436Z,11.65
2023-03-29T12:58:18.341Z,11.70
2023-03-29T12:59:18.399Z,11.77
2023-03-29T13:00:18.301Z,11.91
2023-03-29T13:01:18.324Z,12.03
2023-03-29T13:02:19.292Z,12.09
2023-03-29T13:03:18.292Z,12.02
2023-03-29T13:04:18.301Z,11.99
2023-03-29T13:05:18.274Z,12.06
2023-03-29T13:06:18.254Z,12.12
2023-03-29T13:07:18.231Z,12.17
2023-03-29T13:08:19.117Z,12.22
2023-03-29T13:09:18.216Z,12.22
2023-03-29T13:10:18.184Z,12.27
2023-03-29T13:11:18.143Z,12.28